Logo AVAMET
Benvolgut visitant, si us plau, ingressa Recuperar contrasenya
AVAMET paisatges

Dénia Joan Chabàs

Dades diàries. Acumulats / Últims 30 dies disponibles

Data Temperatura (°C) Humitat rel. (%) Pressió rel. (hPa) Vent (km/h) Precipitació
Mínima Mitjana Màxima Amplitud
tèrmica
Mínima Mitjana Màxima Mínima Mitjana Màxima Predom. Mitjana Ràfega
màxima
Total
(mm)
Índex-n
Mínima Mitjana Màxima Mínima Mitjana Màxima n
0 a 1
P0 max
mm 5'
Dades mensuals acumulades fins l'últim dia disponible
07/2020 23,1 24,4 25,3 27,2 27,9 31,0 37,6 14,5 28 67 88 1.007 1.014 1.020   6,4 44,4 0,0
Dades anuals acumulades fins l'últim dia disponible
2020 5,2 15,0 25,3 18,2 12,0 21,8 37,6 32,4 16 69 95 1.000 1.012 1.034   5,7 101,8 331,2
Últims 30 dies disponibles
09-07-2020 25,3     26,8     28,7 3,4 45 69 81 1.012 1.014 1.016 ESE 7,7 44,4 0,0
08-07-2020 24,5     26,5     29,4 4,9 51 73 82 1.014 1.015 1.017 SSE 7,1 33,8 0,0
07-07-2020 24,9     28,4     32,9 8,0 36 58 72 1.011 1.013 1.014 SSO 4,0 31,5 0,0
06-07-2020 23,9     28,9     34,0 10,1 28 53 84 1.012 1.014 1.016 S 3,8 32,2 0,0
05-07-2020 23,1     27,1     30,8 7,7 28 57 81 1.015 1.018 1.020 S 4,9 42,6 0,0
04-07-2020 24,2     26,6     29,5 5,3 54 69 81 1.017 1.019 1.020 SSE 5,8 37,0 0,0
03-07-2020 24,9     25,9     27,9 3,0 68 78 83 1.014 1.016 1.019 SE 11,5 33,8 0,0
02-07-2020 25,3     26,3     28,1 2,8 74 82 88 1.010 1.012 1.014 SSO 7,7 32,2 0,0
01-07-2020 23,4     28,7     37,6 14,2 29 66 88 1.007 1.009 1.011 SSO 5,0 44,4 0,0
30-06-2020 23,4     25,5     27,8 4,4 63 80 89 1.009 1.013 1.015 S 5,5 33,8 0,0
29-06-2020 23,3     27,2     33,6 10,3 23 64 85 1.011 1.014 1.016 SSE 4,6 42,6 0,0
28-06-2020 22,4     26,6     33,2 10,8 33 68 88 1.013 1.015 1.017 SSO 5,1 35,4 0,0
27-06-2020 22,5     26,6     33,4 10,9 34 67 85 1.012 1.013 1.015 S 4,6 29,6 0,0
26-06-2020 21,9     24,4     26,6 4,7 66 76 86 1.010 1.013 1.015 SSE 5,7 20,9 0,0
25-06-2020 22,0     24,3     26,2 4,2 65 79 88 1.013 1.015 1.017 SSE 4,7 22,2 0,0
24-06-2020 20,6     24,0     25,8 5,2 55 74 80 1.014 1.016 1.017 SSE 5,6 35,4 0,0
23-06-2020 23,6     26,5     30,1 6,5 42 53 63 1.014 1.017 1.018 SSE 5,3 38,9 0,0
22-06-2020 21,7     25,2     29,8 8,1 35 68 91 1.016 1.019 1.021 S 9,9 57,9 0,0
21-06-2020 21,2     24,5     30,4 9,2 54 75 85 1.017 1.019 1.021 S 4,2 31,5 0,0
20-06-2020 20,7     25,6     31,8 11,1 30 67 86 1.016 1.019 1.020 S 3,3 35,4 0,0
19-06-2020 21,2     23,4     26,9 5,7 63 78 87 1.015 1.016 1.019 SSE 6,4 51,8 0,0
18-06-2020 19,5     22,3     24,9 5,4 72 82 91 1.012 1.013 1.015 SE 4,1 22,5 0,3
17-06-2020 20,6     22,0     23,9 3,3 76 83 88 1.012 1.014 1.015 S 6,2 35,2 2,6
16-06-2020 20,6     22,1     24,2 3,6 74 83 87 1.014 1.015 1.017 S 5,0 31,5 0,0
15-06-2020 20,1     24,6     29,4 9,3 24 55 84 1.015 1.017 1.019 S 6,8 46,7 0,0
14-06-2020 20,3     24,2     27,9 7,6 24 52 77 1.014 1.016 1.018 S 8,6 48,3 0,0
13-06-2020 20,4     23,6     26,9 6,5 33 41 47 1.008 1.012 1.015 SO 12,3 50,0 0,0
12-06-2020 22,1     24,7     27,2 5,1 36 47 69 1.002 1.004 1.008 SO 9,8 50,0 0,0
11-06-2020 19,4     24,7     28,8 9,4 30 60 84 1.001 1.006 1.012 S 7,8 55,5 0,0
10-06-2020 18,7     21,7     25,7 7,0 58 67 80 1.010 1.014 1.016 SSE 6,8 32,2 0,0
Últims 13 mesos disponibles
06/2020 16,4 20,6 23,6 24,1 20,7 28,1 33,6 17,2 41 66 83 1.004 1.013 1.019 S 6,5 57,9 18,5
05/2020 14,0 18,0 21,5 21,6 20,2 25,7 31,4 17,4 44 66 84 1.004 1.015 1.026 S 5,8 53,7 19,8
04/2020 10,8 13,9 20,2 16,4 14,9 19,1 27,2 16,4 45 75 93 1.005 1.015 1.025 N 5,7 50,0 63,6
03/2020 8,6 12,5 18,1 15,4 12,0 18,5 24,9 16,3 40 68 91 1.006 1.016 1.025 O 7,7 90,7 96,5
02/2020 8,6 12,3 17,1 16,1 14,4 20,7 26,2 17,6 49 67 84 1.013 1.024 1.032 E 3,0 50,0 1,4
01/2020 5,2 9,6 16,3 12,8 13,2 16,1 22,3 17,1 56 74 89 0 991 1.032 OSO 5,0 101,8 131,4
12/2019 8,1 12,4 20,4 15,2 13,2 18,3 25,6 17,5 48 68 88 1.003 1.018 1.032 O 6,0 90,7 108,4
11/2019 7,8 13,8 22,3 16,9 14,9 20,1 27,5 19,7 41 55 73 998 1.010 1.017 O 9,4 77,7 10,2
10/2019 12,4 17,9 22,1 21,3 17,6 24,8 33,7 21,3 43 67 85 1.007 1.015 1.021 OSO 3,9 53,6 80,9
09/2019 14,7 21,2 24,2 24,7 23,6 28,1 34,3 19,6 48 72 93 1.009 1.016 1.022 S 6,1 103,6 237,0
08/2019 20,6 23,7 27,6 27,5 27,2 31,7 40,2 19,6 51 68 82 1.009 1.014 1.019 S 6,3 59,5 22,2
07/2019 22,8 24,1 25,5 27,4 27,2 31,2 39,5 16,7 45 67 83 1.004 1.012 1.020 SSE 6,7 83,7 2,1
06/2019 15,5 18,9 24,1 23,3 21,2 28,1 37,1 21,6 36 65 86 1.007 1.014 1.021 SSE 6,8 69,2 0,0
Tots els anys disponibles
2019 3,6 15,7 27,6 19,5 13,2 23,6 40,2 36,6 36 65 93 995 1.016 1.033 S 6,2 103,6 810,0
2018 5,3 16,3 27,5 19,7 8,6 23,2 37,8 32,5 34 65 92 993 1.015 1.034 SSO 0,7 89,0 625,8
2017 0,6 16,0 27,5 19,5 10,0 22,9 37,2 36,6 31 66 91 999 1.018 1.036 93,0 587,2
2016 3,9 16,3 26,7 19,5 11,8 22,7 37,8 33,9 59 66 80 1.013 1.017 1.026 89,0 457,1
2015 4,1 16,1 23,5 19,5 21,4 22,9 40,4 36,3 59 67 80 1.014 1.018 1.030 76,0 628,2
2014 5,9 16,6 27,0 19,9 11,8 23,2 38,2 32,3 37 64 90 992 1.015 1.033 6,8 85,0 235,4
2013 3,4 15,6 19,2 18,9 19,5 22,2 34,4 31,0 55 63 72 1.007 1.015 1.024 5,7 98,0 642,8
2012 1,6 15,6 22,1 19,0 19,2 22,7 39,4 37,8 7,9 75,9 532,2
2011 1,4 16,1 25,7 19,3 6,7 22,6 37,2 35,8 7,4 98,0 478,4
2010 3,1 15,2 26,2 18,4 6,1 21,7 41,9 38,8 7,8 101,8 604,1
2009 2,9 17,9 26,5 21,3 9,1 24,9 38,6 35,7 7,6 99,9 848,8
Temperatura (°C)
Humitat relativa (%)
Velocitat del vent i ràfega màxima (km/h)
Direcció del vent (°)
Pressió (hPa)
Precipitació (mm)
Nota sobre les dades: s'avisa a l'usuari de la provisionalitat i no oficialitat d'aquestes dades
Logo AVAMET blanc
Web allotjada a Sollutia
Llicència de Creative CommonsLa web d'AVAMET i els seus continguts estan subjectes a una llicència de
Reconeixement - No Comercial - Compartir igual
Últimes estacions: Vilamarxant - La Pedrera (Soci), Càlig (Ajuntament Soci), Quesa - Hotel La Rocha (Soci), Agres - Les Eres (Soci), la Vilavella - Ptda Forns (Soci), Miramar - Platja (Inforatge), San Fulgencio - Centre & San Fulgencio - Urb. La Marina (MeteOrihuela), Ontinyent - els Gínjols (Soci), Orba (Aj. Soci) - - -